sensor_id;sensor_type;location;lat;lon;timestamp;pressure;altitude;pressure_sealevel;temperature
12430;BMP280;6279;42.192;24.326;2022-08-19T00:00:27;98474.63;;;25.34
12430;BMP280;6279;42.192;24.326;2022-08-19T00:02:53;98473.28;;;25.32
12430;BMP280;6279;42.192;24.326;2022-08-19T00:05:20;98464.25;;;25.43
12430;BMP280;6279;42.192;24.326;2022-08-19T00:07:46;98461.81;;;25.46
12430;BMP280;6279;42.192;24.326;2022-08-19T00:10:13;98462.56;;;25.56
12430;BMP280;6279;42.192;24.326;2022-08-19T00:12:39;98459.59;;;25.63
12430;BMP280;6279;42.192;24.326;2022-08-19T00:15:07;98461.47;;;25.62
12430;BMP280;6279;42.192;24.326;2022-08-19T00:17:40;98466.22;;;25.70
12430;BMP280;6279;42.192;24.326;2022-08-19T00:20:06;98463.59;;;25.65
12430;BMP280;6279;42.192;24.326;2022-08-19T00:22:32;98464.13;;;25.62
12430;BMP280;6279;42.192;24.326;2022-08-19T00:24:58;98449.94;;;25.72
12430;BMP280;6279;42.192;24.326;2022-08-19T00:27:23;98451.91;;;25.61
12430;BMP280;6279;42.192;24.326;2022-08-19T00:29:49;98459.88;;;25.56
12430;BMP280;6279;42.192;24.326;2022-08-19T00:32:14;98463.63;;;25.55
12430;BMP280;6279;42.192;24.326;2022-08-19T00:34:40;98461.50;;;25.57
12430;BMP280;6279;42.192;24.326;2022-08-19T00:37:05;98457.47;;;25.65
12430;BMP280;6279;42.192;24.326;2022-08-19T00:39:31;98457.22;;;25.56
12430;BMP280;6279;42.192;24.326;2022-08-19T00:41:56;98457.78;;;25.53
12430;BMP280;6279;42.192;24.326;2022-08-19T00:44:27;98458.84;;;25.52
12430;BMP280;6279;42.192;24.326;2022-08-19T00:46:55;98459.16;;;25.46
12430;BMP280;6279;42.192;24.326;2022-08-19T00:51:55;98460.56;;;25.24
12430;BMP280;6279;42.192;24.326;2022-08-19T00:54:23;98458.75;;;25.05
12430;BMP280;6279;42.192;24.326;2022-08-19T00:56:49;98454.25;;;24.96
12430;BMP280;6279;42.192;24.326;2022-08-19T00:59:16;98459.06;;;24.79
12430;BMP280;6279;42.192;24.326;2022-08-19T01:01:44;98460.66;;;24.80
12430;BMP280;6279;42.192;24.326;2022-08-19T01:04:10;98459.06;;;24.79
12430;BMP280;6279;42.192;24.326;2022-08-19T01:06:36;98460.13;;;24.78
12430;BMP280;6279;42.192;24.326;2022-08-19T01:09:03;98465.47;;;24.78
12430;BMP280;6279;42.192;24.326;2022-08-19T01:11:30;98468.66;;;24.75
12430;BMP280;6279;42.192;24.326;2022-08-19T01:13:57;98467.84;;;24.65
12430;BMP280;6279;42.192;24.326;2022-08-19T01:16:25;98468.09;;;24.63
12430;BMP280;6279;42.192;24.326;2022-08-19T01:18:51;98463.59;;;24.59
12430;BMP280;6279;42.192;24.326;2022-08-19T01:21:43;98465.72;;;24.62
12430;BMP280;6279;42.192;24.326;2022-08-19T01:24:11;98462.00;;;24.58
12430;BMP280;6279;42.192;24.326;2022-08-19T01:26:41;98472.38;;;24.55
12430;BMP280;6279;42.192;24.326;2022-08-19T01:29:08;98468.13;;;24.54
12430;BMP280;6279;42.192;24.326;2022-08-19T01:31:35;98481.69;;;24.47
12430;BMP280;6279;42.192;24.326;2022-08-19T01:34:02;98484.34;;;24.42
12430;BMP280;6279;42.192;24.326;2022-08-19T01:36:35;98480.34;;;24.30
12430;BMP280;6279;42.192;24.326;2022-08-19T01:39:04;98479.28;;;24.26
12430;BMP280;6279;42.192;24.326;2022-08-19T01:41:29;98487.00;;;24.28
12430;BMP280;6279;42.192;24.326;2022-08-19T01:43:55;98488.88;;;24.42
12430;BMP280;6279;42.192;24.326;2022-08-19T01:46:21;98479.03;;;24.57
12430;BMP280;6279;42.192;24.326;2022-08-19T01:48:47;98482.25;;;24.69
12430;BMP280;6279;42.192;24.326;2022-08-19T01:51:13;98485.16;;;24.67
12430;BMP280;6279;42.192;24.326;2022-08-19T01:53:39;98487.00;;;24.62
12430;BMP280;6279;42.192;24.326;2022-08-19T01:56:06;98489.38;;;24.63
12430;BMP280;6279;42.192;24.326;2022-08-19T01:58:38;98484.09;;;24.68
12430;BMP280;6279;42.192;24.326;2022-08-19T02:01:06;98482.47;;;24.63
12430;BMP280;6279;42.192;24.326;2022-08-19T02:03:32;98490.47;;;24.72
12430;BMP280;6279;42.192;24.326;2022-08-19T02:05:59;98490.47;;;24.67
12430;BMP280;6279;42.192;24.326;2022-08-19T02:08:26;98488.31;;;24.64
12430;BMP280;6279;42.192;24.326;2022-08-19T02:10:51;98500.03;;;24.68
12430;BMP280;6279;42.192;24.326;2022-08-19T02:13:17;98494.97;;;24.67
12430;BMP280;6279;42.192;24.326;2022-08-19T02:15:43;98493.91;;;24.48
12430;BMP280;6279;42.192;24.326;2022-08-19T02:18:08;98496.84;;;24.62
12430;BMP280;6279;42.192;24.326;2022-08-19T02:20:34;98496.84;;;24.57
12430;BMP280;6279;42.192;24.326;2022-08-19T02:23:00;98494.19;;;24.52
12430;BMP280;6279;42.192;24.326;2022-08-19T02:25:27;98497.38;;;24.44
12430;BMP280;6279;42.192;24.326;2022-08-19T02:27:52;98503.19;;;24.31
12430;BMP280;6279;42.192;24.326;2022-08-19T02:30:19;98502.13;;;24.13
12430;BMP280;6279;42.192;24.326;2022-08-19T02:32:44;98511.16;;;24.07
12430;BMP280;6279;42.192;24.326;2022-08-19T02:35:11;98515.34;;;23.93
12430;BMP280;6279;42.192;24.326;2022-08-19T02:37:37;98513.50;;;23.98
12430;BMP280;6279;42.192;24.326;2022-08-19T02:40:21;98507.09;;;23.95
12430;BMP280;6279;42.192;24.326;2022-08-19T02:42:46;98517.47;;;23.91
12430;BMP280;6279;42.192;24.326;2022-08-19T02:45:13;98515.06;;;23.90
12430;BMP280;6279;42.192;24.326;2022-08-19T02:47:39;98504.72;;;23.93
12430;BMP280;6279;42.192;24.326;2022-08-19T02:50:06;98511.09;;;23.92
12430;BMP280;6279;42.192;24.326;2022-08-19T02:52:33;98513.75;;;23.92
12430;BMP280;6279;42.192;24.326;2022-08-19T02:54:59;98515.88;;;23.90
12430;BMP280;6279;42.192;24.326;2022-08-19T02:57:25;98510.28;;;23.87
12430;BMP280;6279;42.192;24.326;2022-08-19T02:59:51;98518.47;;;23.75
12430;BMP280;6279;42.192;24.326;2022-08-19T03:02:17;98515.22;;;23.54
12430;BMP280;6279;42.192;24.326;2022-08-19T03:04:42;98517.31;;;23.47
12430;BMP280;6279;42.192;24.326;2022-08-19T03:07:09;98523.69;;;23.46
12430;BMP280;6279;42.192;24.326;2022-08-19T03:09:36;98529.00;;;23.46
12430;BMP280;6279;42.192;24.326;2022-08-19T03:12:04;98532.22;;;23.53
12430;BMP280;6279;42.192;24.326;2022-08-19T03:14:33;98533.78;;;23.49
12430;BMP280;6279;42.192;24.326;2022-08-19T03:16:59;98536.38;;;23.39
12430;BMP280;6279;42.192;24.326;2022-08-19T03:19:24;98536.78;;;23.22
12430;BMP280;6279;42.192;24.326;2022-08-19T03:21:50;98542.56;;;23.09
12430;BMP280;6279;42.192;24.326;2022-08-19T03:24:17;98551.50;;;22.98
12430;BMP280;6279;42.192;24.326;2022-08-19T03:26:50;98556.97;;;22.87
12430;BMP280;6279;42.192;24.326;2022-08-19T03:29:17;98568.38;;;22.83
12430;BMP280;6279;42.192;24.326;2022-08-19T03:31:43;98568.59;;;22.76
12430;BMP280;6279;42.192;24.326;2022-08-19T03:34:21;98573.06;;;22.71
12430;BMP280;6279;42.192;24.326;2022-08-19T03:36:48;98571.69;;;22.68
12430;BMP280;6279;42.192;24.326;2022-08-19T03:39:14;98564.06;;;22.72
12430;BMP280;6279;42.192;24.326;2022-08-19T03:41:42;98573.09;;;22.76
12430;BMP280;6279;42.192;24.326;2022-08-19T03:44:07;98577.38;;;22.82
12430;BMP280;6279;42.192;24.326;2022-08-19T03:46:34;98586.34;;;22.76
12430;BMP280;6279;42.192;24.326;2022-08-19T03:49:04;98574.72;;;22.82
12430;BMP280;6279;42.192;24.326;2022-08-19T03:51:36;98578.25;;;22.92
12430;BMP280;6279;42.192;24.326;2022-08-19T03:54:05;98581.75;;;22.97
12430;BMP280;6279;42.192;24.326;2022-08-19T03:56:30;98574.88;;;23.01
12430;BMP280;6279;42.192;24.326;2022-08-19T03:58:57;98577.59;;;23.11
12430;BMP280;6279;42.192;24.326;2022-08-19T04:01:26;98581.88;;;23.17
12430;BMP280;6279;42.192;24.326;2022-08-19T04:03:52;98573.66;;;23.18
12430;BMP280;6279;42.192;24.326;2022-08-19T04:06:21;98592.56;;;23.27
12430;BMP280;6279;42.192;24.326;2022-08-19T04:08:49;98587.81;;;23.33
12430;BMP280;6279;42.192;24.326;2022-08-19T04:11:20;98589.50;;;23.44
12430;BMP280;6279;42.192;24.326;2022-08-19T04:13:47;98582.09;;;23.46
12430;BMP280;6279;42.192;24.326;2022-08-19T04:16:14;98597.50;;;23.54
12430;BMP280;6279;42.192;24.326;2022-08-19T04:18:40;98591.16;;;23.60
12430;BMP280;6279;42.192;24.326;2022-08-19T04:21:07;98584.31;;;23.74
12430;BMP280;6279;42.192;24.326;2022-08-19T04:23:34;98601.66;;;23.86
12430;BMP280;6279;42.192;24.326;2022-08-19T04:26:01;98596.06;;;23.87
12430;BMP280;6279;42.192;24.326;2022-08-19T04:28:27;98608.88;;;24.00
12430;BMP280;6279;42.192;24.326;2022-08-19T04:30:55;98605.00;;;24.17
12430;BMP280;6279;42.192;24.326;2022-08-19T04:33:23;98607.66;;;24.27
12430;BMP280;6279;42.192;24.326;2022-08-19T04:35:51;98602.63;;;24.35
12430;BMP280;6279;42.192;24.326;2022-08-19T04:38:18;98608.00;;;24.50
12430;BMP280;6279;42.192;24.326;2022-08-19T04:40:47;98607.72;;;24.51
12430;BMP280;6279;42.192;24.326;2022-08-19T04:43:32;98608.03;;;24.69
12430;BMP280;6279;42.192;24.326;2022-08-19T04:45:58;98589.94;;;24.81
12430;BMP280;6279;42.192;24.326;2022-08-19T04:48:29;98603.25;;;24.86
12430;BMP280;6279;42.192;24.326;2022-08-19T04:50:57;98596.06;;;24.86
12430;BMP280;6279;42.192;24.326;2022-08-19T04:53:30;98597.94;;;24.91
12430;BMP280;6279;42.192;24.326;2022-08-19T04:55:58;98593.38;;;25.16
12430;BMP280;6279;42.192;24.326;2022-08-19T04:58:27;98605.91;;;25.40
12430;BMP280;6279;42.192;24.326;2022-08-19T05:00:53;98599.91;;;25.72
12430;BMP280;6279;42.192;24.326;2022-08-19T05:03:19;98598.81;;;25.97
12430;BMP280;6279;42.192;24.326;2022-08-19T05:05:47;98598.66;;;26.22
12430;BMP280;6279;42.192;24.326;2022-08-19T05:08:18;98599.69;;;26.31
12430;BMP280;6279;42.192;24.326;2022-08-19T05:10:48;98604.63;;;26.57
12430;BMP280;6279;42.192;24.326;2022-08-19T05:13:15;98598.28;;;26.81
12430;BMP280;6279;42.192;24.326;2022-08-19T05:15:41;98606.69;;;26.97
12430;BMP280;6279;42.192;24.326;2022-08-19T05:18:07;98610.38;;;27.06
12430;BMP280;6279;42.192;24.326;2022-08-19T05:20:51;98612.75;;;27.40
12430;BMP280;6279;42.192;24.326;2022-08-19T05:23:35;98609.34;;;27.58
12430;BMP280;6279;42.192;24.326;2022-08-19T05:26:00;98617.31;;;27.63
12430;BMP280;6279;42.192;24.326;2022-08-19T05:28:26;98621.88;;;27.85
12430;BMP280;6279;42.192;24.326;2022-08-19T05:30:52;98626.66;;;27.88
12430;BMP280;6279;42.192;24.326;2022-08-19T05:33:21;98619.94;;;28.14
12430;BMP280;6279;42.192;24.326;2022-08-19T05:35:47;98623.84;;;28.44
12430;BMP280;6279;42.192;24.326;2022-08-19T05:38:15;98630.47;;;28.64
12430;BMP280;6279;42.192;24.326;2022-08-19T05:40:41;98631.06;;;28.80
12430;BMP280;6279;42.192;24.326;2022-08-19T05:43:08;98629.53;;;28.92
12430;BMP280;6279;42.192;24.326;2022-08-19T05:45:39;98631.13;;;28.93
12430;BMP280;6279;42.192;24.326;2022-08-19T05:48:04;98632.97;;;29.10
12430;BMP280;6279;42.192;24.326;2022-08-19T05:50:30;98630.59;;;29.09
12430;BMP280;6279;42.192;24.326;2022-08-19T05:52:55;98624.69;;;29.56
12430;BMP280;6279;42.192;24.326;2022-08-19T05:55:21;98632.94;;;29.73
12430;BMP280;6279;42.192;24.326;2022-08-19T05:57:48;98632.19;;;29.99
12430;BMP280;6279;42.192;24.326;2022-08-19T06:00:13;98632.44;;;30.37
12430;BMP280;6279;42.192;24.326;2022-08-19T06:02:39;98638.22;;;30.79
12430;BMP280;6279;42.192;24.326;2022-08-19T06:05:06;98631.19;;;31.04
12430;BMP280;6279;42.192;24.326;2022-08-19T06:07:37;98633.47;;;31.40
12430;BMP280;6279;42.192;24.326;2022-08-19T06:10:08;98636.94;;;31.62
12430;BMP280;6279;42.192;24.326;2022-08-19T06:12:35;98644.03;;;31.88
12430;BMP280;6279;42.192;24.326;2022-08-19T06:15:10;98637.25;;;31.99
12430;BMP280;6279;42.192;24.326;2022-08-19T06:17:36;98643.69;;;32.19
12430;BMP280;6279;42.192;24.326;2022-08-19T06:20:07;98640.47;;;32.64
12430;BMP280;6279;42.192;24.326;2022-08-19T06:22:38;98636.34;;;33.00
12430;BMP280;6279;42.192;24.326;2022-08-19T06:25:04;98649.38;;;33.14
12430;BMP280;6279;42.192;24.326;2022-08-19T06:27:29;98653.19;;;33.05
12430;BMP280;6279;42.192;24.326;2022-08-19T06:29:56;98644.59;;;33.28
12430;BMP280;6279;42.192;24.326;2022-08-19T06:32:22;98643.59;;;33.57
12430;BMP280;6279;42.192;24.326;2022-08-19T06:34:47;98643.63;;;33.24
12430;BMP280;6279;42.192;24.326;2022-08-19T06:37:13;98643.25;;;33.67
12430;BMP280;6279;42.192;24.326;2022-08-19T06:39:40;98647.81;;;34.20
12430;BMP280;6279;42.192;24.326;2022-08-19T06:42:07;98642.25;;;34.53
12430;BMP280;6279;42.192;24.326;2022-08-19T06:44:36;98635.09;;;33.84
12430;BMP280;6279;42.192;24.326;2022-08-19T06:47:03;98634.31;;;34.20
12430;BMP280;6279;42.192;24.326;2022-08-19T06:49:29;98634.06;;;34.62
12430;BMP280;6279;42.192;24.326;2022-08-19T06:51:56;98627.50;;;34.71
12430;BMP280;6279;42.192;24.326;2022-08-19T06:54:22;98622.66;;;35.16
12430;BMP280;6279;42.192;24.326;2022-08-19T06:56:48;98636.88;;;35.45
12430;BMP280;6279;42.192;24.326;2022-08-19T06:59:17;98636.50;;;35.78
12430;BMP280;6279;42.192;24.326;2022-08-19T07:01:45;98627.19;;;35.44
12430;BMP280;6279;42.192;24.326;2022-08-19T07:04:13;98625.16;;;35.53
12430;BMP280;6279;42.192;24.326;2022-08-19T07:06:41;98629.53;;;36.01
12430;BMP280;6279;42.192;24.326;2022-08-19T07:09:10;98627.13;;;36.70
12430;BMP280;6279;42.192;24.326;2022-08-19T07:11:36;98624.84;;;36.84
12430;BMP280;6279;42.192;24.326;2022-08-19T07:14:02;98621.88;;;36.88
12430;BMP280;6279;42.192;24.326;2022-08-19T07:16:28;98627.97;;;37.24
12430;BMP280;6279;42.192;24.326;2022-08-19T07:18:54;98611.34;;;37.83
12430;BMP280;6279;42.192;24.326;2022-08-19T07:21:24;98612.06;;;37.80
12430;BMP280;6279;42.192;24.326;2022-08-19T07:23:53;98610.72;;;38.19
12430;BMP280;6279;42.192;24.326;2022-08-19T07:26:27;98605.41;;;38.57
12430;BMP280;6279;42.192;24.326;2022-08-19T07:28:54;98610.25;;;38.82
12430;BMP280;6279;42.192;24.326;2022-08-19T07:31:22;98601.16;;;39.11
12430;BMP280;6279;42.192;24.326;2022-08-19T07:33:49;98598.66;;;39.40
12430;BMP280;6279;42.192;24.326;2022-08-19T07:36:17;98597.78;;;39.77
12430;BMP280;6279;42.192;24.326;2022-08-19T07:38:44;98601.56;;;40.42
12430;BMP280;6279;42.192;24.326;2022-08-19T07:41:18;98593.72;;;39.68
12430;BMP280;6279;42.192;24.326;2022-08-19T07:43:46;98590.78;;;39.35
12430;BMP280;6279;42.192;24.326;2022-08-19T07:46:12;98600.34;;;40.14
12430;BMP280;6279;42.192;24.326;2022-08-19T07:48:40;98603.16;;;40.72
12430;BMP280;6279;42.192;24.326;2022-08-19T07:51:07;98605.59;;;41.38
12430;BMP280;6279;42.192;24.326;2022-08-19T07:53:34;98602.22;;;41.94
12430;BMP280;6279;42.192;24.326;2022-08-19T07:56:00;98601.34;;;42.29
12430;BMP280;6279;42.192;24.326;2022-08-19T07:58:31;98602.16;;;42.36
12430;BMP280;6279;42.192;24.326;2022-08-19T08:00:58;98601.34;;;42.88
12430;BMP280;6279;42.192;24.326;2022-08-19T08:03:26;98595.94;;;43.06
12430;BMP280;6279;42.192;24.326;2022-08-19T08:06:12;98601.22;;;43.58
12430;BMP280;6279;42.192;24.326;2022-08-19T08:08:55;98597.72;;;44.16
12430;BMP280;6279;42.192;24.326;2022-08-19T08:11:49;98594.03;;;44.98
12430;BMP280;6279;42.192;24.326;2022-08-19T08:14:22;98600.28;;;45.79
12430;BMP280;6279;42.192;24.326;2022-08-19T08:16:48;98593.28;;;46.90
12430;BMP280;6279;42.192;24.326;2022-08-19T08:19:18;98592.94;;;46.52
12430;BMP280;6279;42.192;24.326;2022-08-19T08:21:44;98593.88;;;47.08
12430;BMP280;6279;42.192;24.326;2022-08-19T08:24:10;98579.66;;;46.01
12430;BMP280;6279;42.192;24.326;2022-08-19T08:26:38;98581.56;;;46.50
12430;BMP280;6279;42.192;24.326;2022-08-19T08:29:03;98580.88;;;47.08
12430;BMP280;6279;42.192;24.326;2022-08-19T08:31:29;98573.41;;;47.86
12430;BMP280;6279;42.192;24.326;2022-08-19T08:33:54;98562.09;;;47.81
12430;BMP280;6279;42.192;24.326;2022-08-19T08:36:20;98558.91;;;48.50
12430;BMP280;6279;42.192;24.326;2022-08-19T08:38:46;98555.56;;;49.66
12430;BMP280;6279;42.192;24.326;2022-08-19T08:41:36;98557.56;;;50.96
12430;BMP280;6279;42.192;24.326;2022-08-19T08:44:06;98559.75;;;50.76
12430;BMP280;6279;42.192;24.326;2022-08-19T08:46:41;98555.41;;;51.28
12430;BMP280;6279;42.192;24.326;2022-08-19T08:51:41;98550.47;;;52.30
12430;BMP280;6279;42.192;24.326;2022-08-19T08:54:10;98546.28;;;52.13
12430;BMP280;6279;42.192;24.326;2022-08-19T08:56:44;98537.03;;;51.70
12430;BMP280;6279;42.192;24.326;2022-08-19T08:59:26;98546.78;;;51.75
12430;BMP280;6279;42.192;24.326;2022-08-19T09:01:53;98532.47;;;52.55
12430;BMP280;6279;42.192;24.326;2022-08-19T09:04:18;98546.75;;;49.86
12430;BMP280;6279;42.192;24.326;2022-08-19T09:07:10;98538.31;;;48.13
12430;BMP280;6279;42.192;24.326;2022-08-19T09:09:49;98528.63;;;48.02
12430;BMP280;6279;42.192;24.326;2022-08-19T09:15:08;98524.56;;;46.11
12430;BMP280;6279;42.192;24.326;2022-08-19T09:17:34;98519.53;;;47.56
12430;BMP280;6279;42.192;24.326;2022-08-19T09:22:37;98520.53;;;47.91
12430;BMP280;6279;42.192;24.326;2022-08-19T09:25:03;98524.91;;;48.91
12430;BMP280;6279;42.192;24.326;2022-08-19T09:27:30;98503.50;;;50.51
12430;BMP280;6279;42.192;24.326;2022-08-19T09:29:57;98506.34;;;52.31
12430;BMP280;6279;42.192;24.326;2022-08-19T09:32:24;98505.47;;;52.55
12430;BMP280;6279;42.192;24.326;2022-08-19T09:34:51;98499.84;;;52.68
12430;BMP280;6279;42.192;24.326;2022-08-19T09:37:20;98496.53;;;53.41
12430;BMP280;6279;42.192;24.326;2022-08-19T09:39:46;98494.13;;;52.92
12430;BMP280;6279;42.192;24.326;2022-08-19T09:42:12;98494.78;;;52.96
12430;BMP280;6279;42.192;24.326;2022-08-19T09:44:42;98491.31;;;52.41
12430;BMP280;6279;42.192;24.326;2022-08-19T09:47:12;98479.63;;;52.46
12430;BMP280;6279;42.192;24.326;2022-08-19T09:49:38;98488.72;;;52.47
12430;BMP280;6279;42.192;24.326;2022-08-19T09:52:05;98477.28;;;52.45
12430;BMP280;6279;42.192;24.326;2022-08-19T09:54:32;98475.00;;;51.28
12430;BMP280;6279;42.192;24.326;2022-08-19T09:56:58;98473.28;;;51.34
12430;BMP280;6279;42.192;24.326;2022-08-19T09:59:25;98464.31;;;51.87
12430;BMP280;6279;42.192;24.326;2022-08-19T10:01:51;98461.50;;;52.21
12430;BMP280;6279;42.192;24.326;2022-08-19T10:04:16;98455.84;;;52.45
12430;BMP280;6279;42.192;24.326;2022-08-19T10:06:42;98457.53;;;52.64
12430;BMP280;6279;42.192;24.326;2022-08-19T10:09:10;98447.38;;;51.73
12430;BMP280;6279;42.192;24.326;2022-08-19T10:11:38;98445.38;;;49.80
12430;BMP280;6279;42.192;24.326;2022-08-19T10:14:04;98448.00;;;49.71
12430;BMP280;6279;42.192;24.326;2022-08-19T10:16:35;98441.50;;;49.78
12430;BMP280;6279;42.192;24.326;2022-08-19T10:19:01;98435.97;;;50.06
12430;BMP280;6279;42.192;24.326;2022-08-19T10:21:29;98439.16;;;49.61
12430;BMP280;6279;42.192;24.326;2022-08-19T10:23:58;98453.13;;;48.15
12430;BMP280;6279;42.192;24.326;2022-08-19T10:26:30;98448.31;;;47.03
12430;BMP280;6279;42.192;24.326;2022-08-19T10:28:56;98436.44;;;47.09
12430;BMP280;6279;42.192;24.326;2022-08-19T10:31:27;98437.88;;;46.91
12430;BMP280;6279;42.192;24.326;2022-08-19T10:33:52;98429.31;;;46.86
12430;BMP280;6279;42.192;24.326;2022-08-19T10:36:25;98432.50;;;46.22
12430;BMP280;6279;42.192;24.326;2022-08-19T10:38:52;98434.78;;;45.51
12430;BMP280;6279;42.192;24.326;2022-08-19T10:41:21;98429.69;;;45.00
12430;BMP280;6279;42.192;24.326;2022-08-19T10:43:51;98420.22;;;46.59
12430;BMP280;6279;42.192;24.326;2022-08-19T10:46:20;98417.63;;;47.04
12430;BMP280;6279;42.192;24.326;2022-08-19T10:48:46;98435.09;;;45.10
12430;BMP280;6279;42.192;24.326;2022-08-19T10:51:12;98424.56;;;45.02
12430;BMP280;6279;42.192;24.326;2022-08-19T10:53:56;98424.59;;;44.95
12430;BMP280;6279;42.192;24.326;2022-08-19T10:56:23;98428.66;;;44.73
12430;BMP280;6279;42.192;24.326;2022-08-19T10:59:07;98417.91;;;44.19
12430;BMP280;6279;42.192;24.326;2022-08-19T11:01:34;98417.50;;;44.23
12430;BMP280;6279;42.192;24.326;2022-08-19T11:04:01;98405.81;;;45.43
12430;BMP280;6279;42.192;24.326;2022-08-19T11:06:27;98411.22;;;46.26
12430;BMP280;6279;42.192;24.326;2022-08-19T11:08:55;98411.88;;;44.58
12430;BMP280;6279;42.192;24.326;2022-08-19T11:11:21;98405.34;;;44.31
12430;BMP280;6279;42.192;24.326;2022-08-19T11:13:47;98411.00;;;44.74
12430;BMP280;6279;42.192;24.326;2022-08-19T11:16:17;98402.09;;;45.17
12430;BMP280;6279;42.192;24.326;2022-08-19T11:18:46;98403.22;;;45.69
12430;BMP280;6279;42.192;24.326;2022-08-19T11:23:40;98395.72;;;42.97
12430;BMP280;6279;42.192;24.326;2022-08-19T11:26:06;98384.13;;;42.09
12430;BMP280;6279;42.192;24.326;2022-08-19T11:28:31;98401.84;;;41.69
12430;BMP280;6279;42.192;24.326;2022-08-19T11:30:57;98384.84;;;41.43
12430;BMP280;6279;42.192;24.326;2022-08-19T11:33:22;98386.34;;;40.56
12430;BMP280;6279;42.192;24.326;2022-08-19T11:35:48;98384.16;;;40.36
12430;BMP280;6279;42.192;24.326;2022-08-19T11:38:14;98380.28;;;40.72
12430;BMP280;6279;42.192;24.326;2022-08-19T11:40:39;98381.91;;;41.19
12430;BMP280;6279;42.192;24.326;2022-08-19T11:43:07;98379.06;;;41.06
12430;BMP280;6279;42.192;24.326;2022-08-19T11:45:35;98367.75;;;41.04
12430;BMP280;6279;42.192;24.326;2022-08-19T11:48:01;98366.56;;;39.43
12430;BMP280;6279;42.192;24.326;2022-08-19T11:50:27;98371.66;;;39.23
12430;BMP280;6279;42.192;24.326;2022-08-19T11:52:56;98363.38;;;39.92
12430;BMP280;6279;42.192;24.326;2022-08-19T11:55:22;98366.25;;;39.74
12430;BMP280;6279;42.192;24.326;2022-08-19T11:57:48;98359.22;;;39.47
12430;BMP280;6279;42.192;24.326;2022-08-19T12:00:14;98354.09;;;39.42
12430;BMP280;6279;42.192;24.326;2022-08-19T12:02:40;98355.44;;;39.55
12430;BMP280;6279;42.192;24.326;2022-08-19T12:05:06;98350.03;;;39.84
12430;BMP280;6279;42.192;24.326;2022-08-19T12:07:33;98344.75;;;39.69
12430;BMP280;6279;42.192;24.326;2022-08-19T12:09:59;98338.59;;;40.36
12430;BMP280;6279;42.192;24.326;2022-08-19T12:12:26;98342.16;;;39.76
12430;BMP280;6279;42.192;24.326;2022-08-19T12:14:52;98340.09;;;39.69
12430;BMP280;6279;42.192;24.326;2022-08-19T12:17:26;98333.81;;;39.94
12430;BMP280;6279;42.192;24.326;2022-08-19T12:19:51;98330.72;;;39.16
12430;BMP280;6279;42.192;24.326;2022-08-19T12:22:17;98343.41;;;38.42
12430;BMP280;6279;42.192;24.326;2022-08-19T12:24:43;98337.53;;;38.81
12430;BMP280;6279;42.192;24.326;2022-08-19T12:27:09;98336.72;;;38.59
12430;BMP280;6279;42.192;24.326;2022-08-19T12:29:34;98332.69;;;38.49
12430;BMP280;6279;42.192;24.326;2022-08-19T12:31:59;98329.59;;;38.95
12430;BMP280;6279;42.192;24.326;2022-08-19T12:34:29;98324.84;;;39.36
12430;BMP280;6279;42.192;24.326;2022-08-19T12:36:56;98321.84;;;39.70
12430;BMP280;6279;42.192;24.326;2022-08-19T12:39:22;98317.47;;;39.36
12430;BMP280;6279;42.192;24.326;2022-08-19T12:41:47;98327.94;;;39.34
12430;BMP280;6279;42.192;24.326;2022-08-19T12:44:14;98321.22;;;39.54
12430;BMP280;6279;42.192;24.326;2022-08-19T12:46:40;98309.94;;;39.84
12430;BMP280;6279;42.192;24.326;2022-08-19T12:49:05;98309.78;;;40.35
12430;BMP280;6279;42.192;24.326;2022-08-19T12:51:31;98301.06;;;40.59
12430;BMP280;6279;42.192;24.326;2022-08-19T12:53:56;98305.16;;;40.39
12430;BMP280;6279;42.192;24.326;2022-08-19T12:56:22;98309.50;;;40.08
12430;BMP280;6279;42.192;24.326;2022-08-19T12:58:47;98307.84;;;40.03
12430;BMP280;6279;42.192;24.326;2022-08-19T13:01:15;98304.75;;;40.05
12430;BMP280;6279;42.192;24.326;2022-08-19T13:03:41;98296.03;;;39.89
12430;BMP280;6279;42.192;24.326;2022-08-19T13:06:07;98304.91;;;39.86
12430;BMP280;6279;42.192;24.326;2022-08-19T13:08:33;98300.59;;;39.82
12430;BMP280;6279;42.192;24.326;2022-08-19T13:11:10;98297.03;;;40.07
12430;BMP280;6279;42.192;24.326;2022-08-19T13:13:37;98289.84;;;39.92
12430;BMP280;6279;42.192;24.326;2022-08-19T13:16:06;98302.72;;;39.37
12430;BMP280;6279;42.192;24.326;2022-08-19T13:18:31;98290.63;;;39.35
12430;BMP280;6279;42.192;24.326;2022-08-19T13:20:57;98290.75;;;39.20
12430;BMP280;6279;42.192;24.326;2022-08-19T13:23:22;98282.16;;;38.92
12430;BMP280;6279;42.192;24.326;2022-08-19T13:26:02;98284.47;;;38.90
12430;BMP280;6279;42.192;24.326;2022-08-19T13:28:28;98288.81;;;38.73
12430;BMP280;6279;42.192;24.326;2022-08-19T13:31:18;98289.69;;;38.55
12430;BMP280;6279;42.192;24.326;2022-08-19T13:34:03;98283.28;;;38.66
12430;BMP280;6279;42.192;24.326;2022-08-19T13:36:32;98287.13;;;38.43
12430;BMP280;6279;42.192;24.326;2022-08-19T13:38:57;98286.09;;;38.73
12430;BMP280;6279;42.192;24.326;2022-08-19T13:41:23;98283.22;;;38.63
12430;BMP280;6279;42.192;24.326;2022-08-19T13:43:48;98280.97;;;38.68
12430;BMP280;6279;42.192;24.326;2022-08-19T13:46:14;98282.22;;;38.74
12430;BMP280;6279;42.192;24.326;2022-08-19T13:48:40;98277.88;;;38.91
12430;BMP280;6279;42.192;24.326;2022-08-19T13:51:06;98277.84;;;38.66
12430;BMP280;6279;42.192;24.326;2022-08-19T13:53:35;98281.78;;;38.46
12430;BMP280;6279;42.192;24.326;2022-08-19T13:56:05;98274.31;;;38.43
12430;BMP280;6279;42.192;24.326;2022-08-19T13:58:31;98275.19;;;38.47
12430;BMP280;6279;42.192;24.326;2022-08-19T14:00:57;98274.47;;;38.50
12430;BMP280;6279;42.192;24.326;2022-08-19T14:03:24;98278.81;;;38.55
12430;BMP280;6279;42.192;24.326;2022-08-19T14:05:50;98273.34;;;38.33
12430;BMP280;6279;42.192;24.326;2022-08-19T14:08:16;98269.63;;;38.22
12430;BMP280;6279;42.192;24.326;2022-08-19T14:10:42;98269.94;;;38.17
12430;BMP280;6279;42.192;24.326;2022-08-19T14:13:10;98273.66;;;37.91
12430;BMP280;6279;42.192;24.326;2022-08-19T14:15:35;98273.09;;;37.82
12430;BMP280;6279;42.192;24.326;2022-08-19T14:18:02;98269.53;;;37.97
12430;BMP280;6279;42.192;24.326;2022-08-19T14:20:29;98272.59;;;38.14
12430;BMP280;6279;42.192;24.326;2022-08-19T14:22:55;98272.25;;;38.15
12430;BMP280;6279;42.192;24.326;2022-08-19T14:25:25;98274.72;;;38.23